Time;durP1;ratioP1;P1;durP2;ratioP2;P2;SDS_P1;SDS_P2;PMS_P1;PMS_P2;Temp;Humidity;BMP_temperature;BMP_pressure;BME280_temperature;BME280_humidity;BME280_pressure;Samples;Min_cycle;Max_cycle;Signal;HPM_P1;HPM_P2
2021/11/14 00:01:30;;;;;;;;;10.75;9.50;;;;;12.73;73.68;101513.38;5040653;28;45248;-62
2021/11/14 00:03:56;;;;;;;;;10.00;8.25;;;;;12.72;73.45;101514.31;5040515;28;45401;-62
2021/11/14 00:06:21;;;;;;;;;10.75;9.75;;;;;12.72;73.79;101514.31;5040424;28;45328;-62
2021/11/14 00:08:49;;;;;;;;;12.25;10.25;;;;;12.69;73.77;101520.59;5040384;28;45237;-62
2021/11/14 00:11:17;;;;;;;;;9.75;8.75;;;;;12.69;73.89;101520.59;5040358;28;45319;-63
2021/11/14 00:13:44;;;;;;;;;10.50;9.00;;;;;12.67;73.90;101522.47;5040607;28;45332;-63
2021/11/14 00:16:12;;;;;;;;;6.50;6.00;;;;;12.68;73.84;101524.19;5022549;28;45579;-63
2021/11/14 00:18:42;;;;;;;;;10.50;6.75;;;;;12.67;73.85;101526.91;5040140;28;45279;-63
2021/11/14 00:21:09;;;;;;;;;11.00;9.25;;;;;12.64;73.90;101519.13;5040471;28;45343;-63
2021/11/14 00:23:35;;;;;;;;;13.75;8.50;;;;;12.65;73.71;101513.78;5040457;28;46359;-63
2021/11/14 00:26:02;;;;;;;;;8.50;6.00;;;;;12.66;73.74;101519.94;5040713;28;45487;-63
2021/11/14 00:28:28;;;;;;;;;10.00;9.00;;;;;12.67;73.72;101526.91;5040306;28;45278;-63
2021/11/14 00:30:53;;;;;;;;;12.25;7.75;;;;;12.66;73.74;101525.22;5040313;28;45178;-63
2021/11/14 00:33:20;;;;;;;;;10.50;9.00;;;;;12.66;73.82;101514.66;5040313;28;45229;-62
2021/11/14 00:35:48;;;;;;;;;11.50;11.00;;;;;12.67;73.93;101519.84;5040374;28;45334;-63
2021/11/14 00:38:14;;;;;;;;;10.00;9.00;;;;;12.67;73.71;101516.34;5040033;28;46230;-63
2021/11/14 00:40:40;;;;;;;;;8.25;8.00;;;;;12.64;73.91;101519.13;5040130;28;45303;-63
2021/11/14 00:43:07;;;;;;;;;10.50;9.25;;;;;12.63;73.67;101526.22;5040447;28;45572;-63
2021/11/14 00:45:34;;;;;;;;;11.25;9.00;;;;;12.63;73.82;101526.22;5040199;28;45563;-62
2021/11/14 00:48:01;;;;;;;;;11.50;9.00;;;;;12.61;74.01;101521.97;5039898;28;45435;-63
2021/11/14 00:50:28;;;;;;;;;12.25;6.50;;;;;12.60;73.81;101522.91;5040169;28;45404;-63
2021/11/14 00:52:54;;;;;;;;;9.50;9.50;;;;;12.57;74.01;101519.50;5039710;28;45364;-63
2021/11/14 00:55:21;;;;;;;;;8.50;6.00;;;;;12.61;73.99;101516.69;5039895;28;45349;-63
2021/11/14 00:57:48;;;;;;;;;12.25;10.00;;;;;12.61;74.10;101522.81;5021870;28;46332;-63
2021/11/14 01:00:20;;;;;;;;;6.75;6.75;;;;;12.62;73.97;101518.38;5040265;28;45395;-63
2021/11/14 01:02:46;;;;;;;;;11.00;9.00;;;;;12.63;73.86;101523.56;5043169;28;45222;-63
2021/11/14 01:05:14;;;;;;;;;9.50;6.75;;;;;12.66;74.07;101522.56;5043501;28;45225;-63
2021/11/14 01:07:40;;;;;;;;;10.00;8.50;;;;;12.66;73.94;101522.56;5043116;28;45331;-63
2021/11/14 01:10:09;;;;;;;;;9.75;8.25;;;;;12.66;73.88;101519.94;5043287;28;45447;-63
2021/11/14 01:12:34;;;;;;;;;9.00;7.50;;;;;12.65;73.98;101520.88;5043270;28;45467;-63
2021/11/14 01:15:01;;;;;;;;;8.50;6.00;;;;;12.63;73.85;101513.00;5043274;28;45496;-63
2021/11/14 01:17:26;;;;;;;;;11.00;9.75;;;;;12.61;73.93;101521.97;5042694;28;46215;-63
2021/11/14 01:19:52;;;;;;;;;11.50;9.25;;;;;12.59;74.07;101524.69;5043157;28;45236;-63
2021/11/14 01:22:18;;;;;;;;;15.25;10.00;;;;;12.55;74.31;101529.28;5042896;28;45618;-63
2021/11/14 01:24:44;;;;;;;;;10.00;8.75;;;;;12.55;74.29;101521.34;5043370;28;45207;-63
2021/11/14 01:27:10;;;;;;;;;9.25;7.00;;;;;12.54;74.34;101526.72;5042761;28;45379;-63
2021/11/14 01:29:36;;;;;;;;;14.00;10.25;;;;;12.52;74.34;101520.69;5043817;28;45352;-63
2021/11/14 01:32:03;;;;;;;;;10.50;10.25;;;;;12.49;74.33;101520.88;5043385;28;45311;-64
2021/11/14 01:34:28;;;;;;;;;13.25;9.75;;;;;12.49;74.37;101519.06;5024710;28;45286;-63
2021/11/14 01:36:53;;;;;;;;;11.50;10.00;;;;;12.50;74.53;101523.41;5042548;28;45308;-63
2021/11/14 01:39:19;;;;;;;;;9.25;8.25;;;;;12.53;74.26;101525.03;5024822;28;45322;-63
2021/11/14 01:41:45;;;;;;;;;11.25;9.00;;;;;12.49;74.36;101519.06;5042897;28;45210;-63
2021/11/14 01:44:13;;;;;;;;;9.00;8.50;;;;;12.49;74.39;101520.88;5042974;28;45175;-63
2021/11/14 01:46:39;;;;;;;;;9.75;9.25;;;;;12.47;74.51;101528.84;5042485;28;45540;-63
2021/11/14 01:49:07;;;;;;;;;10.25;8.50;;;;;12.48;74.39;101524.41;5042544;28;45341;-66
2021/11/14 01:51:32;;;;;;;;;8.25;8.25;;;;;12.48;74.25;101530.59;5042451;28;45527;-63
2021/11/14 01:53:58;;;;;;;;;10.25;9.00;;;;;12.49;74.69;101528.78;5042459;28;45465;-63
2021/11/14 01:56:24;;;;;;;;;14.00;9.00;;;;;12.51;74.66;101527.75;5042398;28;45967;-63
2021/11/14 01:58:50;;;;;;;;;14.25;9.25;;;;;12.52;74.47;101528.63;5042571;28;45293;-63
2021/11/14 02:01:28;;;;;;;;;9.25;6.00;;;;;12.50;74.46;101535.78;5042563;28;45338;-63
2021/11/14 02:03:57;;;;;;;;;4.50;1.50;;;;;12.51;74.61;101534.84;5042266;28;45245;-63
2021/11/14 02:06:25;;;;;;;;;10.00;8.00;;;;;12.49;74.53;101524.34;5042037;28;45902;-63
2021/11/14 02:08:52;;;;;;;;;16.00;9.00;;;;;12.47;74.49;101531.50;5042349;28;45357;-63
2021/11/14 02:11:19;;;;;;;;;8.25;5.75;;;;;12.47;74.44;101539.41;5042096;28;45302;-63
2021/11/14 02:13:47;;;;;;;;;11.00;9.00;;;;;12.49;74.62;101539.38;5023679;28;45347;-63
2021/11/14 02:16:14;;;;;;;;;10.75;10.25;;;;;12.47;74.38;101538.56;5042049;28;45335;-63
2021/11/14 02:18:40;;;;;;;;;4.25;4.25;;;;;12.47;74.71;101541.22;5041965;28;45241;-63
2021/11/14 02:21:05;;;;;;;;;10.25;9.25;;;;;12.47;74.56;101539.41;5042039;28;45435;-63
2021/11/14 02:23:32;;;;;;;;;12.00;10.00;;;;;12.49;74.93;101540.22;5042264;28;45214;-63
2021/11/14 02:25:58;;;;;;;;;12.50;10.00;;;;;12.49;74.70;101536.72;5041926;28;45370;-63
2021/11/14 02:28:24;;;;;;;;;10.25;10.25;;;;;12.48;74.81;101538.50;5042073;28;45267;-63
2021/11/14 02:30:52;;;;;;;;;9.50;8.00;;;;;12.47;74.89;101534.13;5041813;28;45285;-64
2021/11/14 02:33:19;;;;;;;;;8.50;8.50;;;;;12.48;74.97;101543.78;5041710;28;45257;-63
2021/11/14 02:35:49;;;;;;;;;13.00;8.50;;;;;12.48;74.89;101537.63;5041692;28;45292;-63
2021/11/14 02:38:16;;;;;;;;;11.75;11.00;;;;;12.49;75.07;101532.28;5023791;28;45419;-63
2021/11/14 02:40:42;;;;;;;;;16.75;12.50;;;;;12.51;75.12;101540.97;5041754;28;45313;-63
2021/11/14 02:43:10;;;;;;;;;9.50;9.25;;;;;12.51;75.25;101533.03;5041843;28;45626;-63
2021/11/14 02:45:37;;;;;;;;;11.75;9.00;;;;;12.52;74.95;101532.09;5041632;28;45267;-63
2021/11/14 02:48:04;;;;;;;;;9.25;6.00;;;;;12.53;75.15;101525.03;5041496;28;45310;-64
2021/11/14 02:50:30;;;;;;;;;13.75;11.75;;;;;12.53;75.13;101528.53;5041552;28;45415;-64
2021/11/14 02:52:56;;;;;;;;;9.00;9.00;;;;;12.54;75.10;101530.22;5041564;28;45490;-63
2021/11/14 02:55:27;;;;;;;;;7.25;7.25;;;;;12.53;74.70;101527.66;5041552;28;45903;-63
2021/11/14 02:57:53;;;;;;;;;12.00;9.00;;;;;12.48;74.92;101530.59;5041711;28;45475;-63
2021/11/14 03:00:27;;;;;;;;;12.00;10.50;;;;;12.47;75.06;101525.34;5041537;28;45403;-63
2021/11/14 03:02:53;;;;;;;;;11.00;9.75;;;;;12.47;74.84;101523.56;5041462;28;45223;-63
2021/11/14 03:05:20;;;;;;;;;9.00;9.00;;;;;12.45;75.05;101525.44;5041296;28;45480;-63
2021/11/14 03:07:47;;;;;;;;;8.50;8.25;;;;;12.44;75.04;101525.53;5041357;28;45428;-63
2021/11/14 03:10:17;;;;;;;;;8.00;8.00;;;;;12.42;75.05;101519.50;5041482;28;45300;-63
2021/11/14 03:13:18;;;;;;;;;8.25;6.25;;;;;12.41;75.27;101523.94;5041500;28;45269;-63
2021/11/14 03:15:47;;;;;;;;;5.75;4.25;;;;;12.43;75.16;101529.13;5019543;28;45399;-63
2021/11/14 03:18:13;;;;;;;;;11.75;9.50;;;;;12.43;74.73;101522.03;5040831;28;45300;-63
2021/11/14 03:20:42;;;;;;;;;11.00;9.00;;;;;12.45;75.02;101529.88;5041023;28;45242;-63
2021/11/14 03:23:08;;;;;;;;;13.25;9.00;;;;;12.44;75.01;101522.91;5041013;28;45340;-63
2021/11/14 03:25:33;;;;;;;;;7.50;6.50;;;;;12.44;75.21;101525.53;5040032;28;46103;-63
2021/11/14 03:27:59;;;;;;;;;9.00;8.00;;;;;12.44;75.08;101531.66;5041201;28;45320;-63
2021/11/14 03:30:26;;;;;;;;;4.25;3.25;;;;;12.42;75.11;101528.25;5041171;28;45297;-63
2021/11/14 03:32:53;;;;;;;;;9.00;8.50;;;;;12.42;75.07;101533.56;5040960;28;45435;-64
2021/11/14 03:35:20;;;;;;;;;11.00;8.00;;;;;12.41;75.22;101536.28;5040506;28;45272;-63
2021/11/14 03:37:46;;;;;;;;;12.00;6.00;;;;;12.44;75.05;101533.47;5040810;28;45381;-63
2021/11/14 03:40:14;;;;;;;;;8.00;8.00;;;;;12.44;75.03;101536.09;5040802;28;45602;-63
2021/11/14 03:42:39;;;;;;;;;12.00;9.25;;;;;12.43;75.17;101539.69;5041107;28;45547;-63
2021/11/14 03:45:06;;;;;;;;;9.00;9.00;;;;;12.44;75.12;101538.75;5040741;28;45923;-63
2021/11/14 03:47:32;;;;;;;;;9.75;8.50;;;;;12.44;75.10;101534.31;5040634;28;45547;-63
2021/11/14 03:49:58;;;;;;;;;8.00;6.00;;;;;12.45;75.12;101538.66;5040726;28;45325;-63
2021/11/14 03:52:24;;;;;;;;;7.75;7.50;;;;;12.44;75.04;101534.31;5040642;28;45249;-63
2021/11/14 03:54:49;;;;;;;;;12.75;10.50;;;;;12.44;74.77;101533.47;5040675;28;46140;-63
2021/11/14 03:57:15;;;;;;;;;6.00;6.00;;;;;12.43;75.00;101531.75;5040797;28;45356;-63
2021/11/14 03:59:41;;;;;;;;;9.50;8.00;;;;;12.44;75.03;101533.47;5040759;28;45486;-63
2021/11/14 04:02:06;;;;;;;;;12.75;8.00;;;;;12.44;75.05;101533.47;5040647;28;45396;-63
2021/11/14 04:04:33;;;;;;;;;11.75;8.50;;;;;12.45;74.93;101532.53;5040455;28;45324;-63
2021/11/14 04:06:58;;;;;;;;;9.00;7.25;;;;;12.45;74.78;101536.00;5040562;28;45454;-63
2021/11/14 04:09:24;;;;;;;;;8.50;6.50;;;;;12.47;75.01;101542.06;5040530;28;45395;-63
2021/11/14 04:11:50;;;;;;;;;9.75;8.75;;;;;12.48;75.17;101538.50;5040738;28;45404;-63
2021/11/14 04:14:15;;;;;;;;;10.50;9.50;;;;;12.48;74.90;101541.16;5040495;28;46241;-63
2021/11/14 04:16:41;;;;;;;;;12.25;9.00;;;;;12.49;74.94;101544.66;5040555;28;45260;-63
2021/11/14 04:19:06;;;;;;;;;6.00;6.00;;;;;12.49;74.73;101534.06;5040261;28;45309;-63
2021/11/14 04:21:32;;;;;;;;;10.00;7.25;;;;;12.47;75.04;101534.13;5040564;28;45309;-63
2021/11/14 04:23:58;;;;;;;;;8.50;5.75;;;;;12.46;74.87;101531.59;5040261;28;46051;-64
2021/11/14 04:26:23;;;;;;;;;8.50;8.50;;;;;12.47;75.06;101530.63;5040431;28;45216;-63
2021/11/14 04:28:49;;;;;;;;;10.75;8.75;;;;;12.48;74.84;101527.06;5040572;28;45525;-63
2021/11/14 04:31:15;;;;;;;;;5.00;5.00;;;;;12.47;75.02;101523.56;5040471;28;45360;-63
2021/11/14 04:33:41;;;;;;;;;9.25;8.00;;;;;12.47;74.85;101526.22;5022126;28;45341;-63
2021/11/14 04:36:07;;;;;;;;;10.25;10.00;;;;;12.48;74.91;101535.88;5042117;28;45356;-63
2021/11/14 04:38:32;;;;;;;;;10.50;9.75;;;;;12.47;74.89;101526.22;5043797;28;45236;-63
2021/11/14 04:40:58;;;;;;;;;9.00;5.75;;;;;12.46;74.85;101528.94;5043969;28;45491;-63
2021/11/14 04:43:24;;;;;;;;;11.25;6.00;;;;;12.44;74.87;101529.03;5043414;28;46210;-63
2021/11/14 04:45:51;;;;;;;;;11.50;6.50;;;;;12.45;74.80;101532.53;5043882;28;45213;-63
2021/11/14 04:48:17;;;;;;;;;10.25;7.50;;;;;12.45;75.04;101535.16;5043564;28;45415;-63
2021/11/14 04:50:43;;;;;;;;;10.00;9.00;;;;;12.45;74.85;101535.16;5026061;28;45339;-63
2021/11/14 04:53:08;;;;;;;;;10.00;9.75;;;;;12.45;74.89;101538.66;5043177;28;45336;-63
2021/11/14 04:55:35;;;;;;;;;10.00;9.25;;;;;12.45;75.05;101540.44;5043600;28;45245;-64
2021/11/14 04:58:02;;;;;;;;;9.75;8.00;;;;;12.44;74.83;101539.59;5043601;28;45507;-63
2021/11/14 05:00:35;;;;;;;;;9.75;8.00;;;;;12.43;74.99;101542.31;5043464;28;45522;-63
2021/11/14 05:03:01;;;;;;;;;9.75;8.00;;;;;12.46;74.99;101542.16;5043101;28;45457;-63
2021/11/14 05:05:26;;;;;;;;;10.75;10.00;;;;;12.44;74.76;101536.97;5043442;28;45388;-63
2021/11/14 05:07:52;;;;;;;;;22.75;19.00;;;;;12.42;75.06;101536.19;5043220;28;45357;-64
2021/11/14 05:10:18;;;;;;;;;9.00;9.00;;;;;12.42;74.98;101533.56;5043453;28;45652;-63
2021/11/14 05:12:43;;;;;;;;;13.50;9.75;;;;;12.43;75.17;101534.41;5043195;28;45866;-63
2021/11/14 05:15:09;;;;;;;;;9.25;8.75;;;;;12.45;75.21;101532.53;5043305;28;45345;-63
2021/11/14 05:17:35;;;;;;;;;9.00;8.00;;;;;12.44;75.49;101526.38;5043143;28;45318;-63
2021/11/14 05:20:03;;;;;;;;;9.00;9.00;;;;;12.45;75.22;101530.72;5043094;28;45518;-63
2021/11/14 05:22:28;;;;;;;;;10.25;10.00;;;;;12.45;75.59;101533.38;5042962;28;46292;-63
2021/11/14 05:24:54;;;;;;;;;10.25;8.75;;;;;12.44;75.43;101534.31;5042931;28;45519;-64
2021/11/14 05:27:19;;;;;;;;;10.25;8.50;;;;;12.44;75.54;101533.47;5043231;28;45466;-63
2021/11/14 05:29:46;;;;;;;;;12.25;8.75;;;;;12.44;75.47;101534.31;5043194;28;45273;-63
2021/11/14 05:32:11;;;;;;;;;10.00;8.75;;;;;12.44;75.77;101533.47;5042395;28;45371;-63
2021/11/14 05:34:37;;;;;;;;;7.50;7.25;;;;;12.44;75.53;101530.81;5042910;28;45421;-63
2021/11/14 05:37:03;;;;;;;;;9.75;8.75;;;;;12.44;75.56;101533.47;5042776;28;45315;-63
2021/11/14 05:39:29;;;;;;;;;11.50;8.75;;;;;12.43;75.48;101527.31;5043045;28;45321;-63
2021/11/14 05:41:54;;;;;;;;;10.25;6.25;;;;;12.41;75.63;101531.84;5042814;28;45392;-63
2021/11/14 05:44:20;;;;;;;;;8.25;6.25;;;;;12.41;75.62;101525.72;5042753;28;45329;-63
2021/11/14 05:46:45;;;;;;;;;12.00;8.00;;;;;12.42;75.83;101530.91;5041951;28;45324;-63
2021/11/14 05:49:13;;;;;;;;;10.00;9.00;;;;;12.42;75.79;101530.06;5042423;28;45159;-63
2021/11/14 05:51:39;;;;;;;;;10.75;9.50;;;;;12.44;75.86;101541.38;5042313;28;46239;-63
2021/11/14 05:54:05;;;;;;;;;9.75;9.00;;;;;12.43;75.60;101535.25;5032306;28;45292;-63
2021/11/14 05:56:31;;;;;;;;;11.25;8.00;;;;;12.45;75.68;101541.31;5042655;28;45388;-63
2021/11/14 06:01:39;;;;;;;;;10.75;7.00;;;;;12.45;75.75;101538.66;5042328;28;45373;-63
2021/11/14 06:04:11;;;;;;;;;11.00;8.25;;;;;12.46;76.04;101540.34;5042119;28;45387;-63
2021/11/14 06:06:36;;;;;;;;;8.25;6.50;;;;;12.47;76.00;101543.84;5042183;28;45233;-63
2021/11/14 06:09:02;;;;;;;;;8.00;8.00;;;;;12.45;75.75;101551.03;5037802;28;45175;-63
2021/11/14 06:11:28;;;;;;;;;8.50;7.00;;;;;12.46;75.94;101553.56;5042462;28;45236;-63
2021/11/14 06:13:53;;;;;;;;;8.25;6.50;;;;;12.44;75.85;101558.09;5042470;28;45308;-63
2021/11/14 06:16:20;;;;;;;;;12.75;9.00;;;;;12.44;75.97;101550.16;5040634;28;45331;-63
2021/11/14 06:18:46;;;;;;;;;9.50;9.50;;;;;12.44;75.97;101549.31;5048386;28;45676;-63
2021/11/14 06:21:11;;;;;;;;;9.00;8.00;;;;;12.44;75.86;101546.69;5029137;28;45443;-63
2021/11/14 06:23:37;;;;;;;;;9.75;8.75;;;;;12.45;76.09;101553.66;5041749;28;45402;-63
2021/11/14 06:26:03;;;;;;;;;9.00;9.00;;;;;12.49;75.98;101563.16;5042158;28;45439;-63
2021/11/14 06:28:29;;;;;;;;;11.75;9.00;;;;;12.49;76.21;101561.34;5040035;28;45341;-63
2021/11/14 06:30:55;;;;;;;;;9.50;8.00;;;;;12.45;75.93;101573.00;5041991;28;46240;-63
2021/11/14 06:33:21;;;;;;;;;8.00;5.00;;;;;12.45;76.01;101562.44;5041793;28;45316;-63
2021/11/14 06:35:46;;;;;;;;;14.50;11.75;;;;;12.47;76.04;101571.13;5042219;28;45232;-63
2021/11/14 06:38:12;;;;;;;;;10.25;8.00;;;;;12.48;75.78;101567.56;5042057;28;45259;-63
2021/11/14 06:40:38;;;;;;;;;9.00;9.00;;;;;12.45;76.01;101565.09;5041687;28;46163;-63
2021/11/14 06:43:03;;;;;;;;;11.50;8.25;;;;;12.42;76.00;101573.19;5041936;28;45162;-63
2021/11/14 06:45:29;;;;;;;;;8.50;8.00;;;;;12.38;76.10;101576.91;5040780;28;45261;-63
2021/11/14 06:47:55;;;;;;;;;13.25;8.00;;;;;12.36;76.32;101581.44;5041804;28;45557;-63
2021/11/14 06:50:21;;;;;;;;;6.00;6.00;;;;;12.33;76.24;101578.97;5042051;28;45320;-63
2021/11/14 06:52:47;;;;;;;;;11.25;8.50;;;;;12.33;76.34;101575.47;5041445;28;45359;-63
2021/11/14 06:55:15;;;;;;;;;6.25;6.25;;;;;12.32;76.43;101577.22;5041639;28;45486;-63
2021/11/14 06:57:40;;;;;;;;;10.25;9.50;;;;;12.33;76.44;101578.97;5028681;28;45495;-64
2021/11/14 07:00:11;;;;;;;;;8.75;6.25;;;;;12.37;76.80;101588.41;5021150;28;45345;-63
2021/11/14 07:02:37;;;;;;;;;6.75;6.75;;;;;12.41;76.39;101592.63;5021416;28;45376;-63
2021/11/14 07:05:05;;;;;;;;;8.00;6.25;;;;;12.45;76.36;101598.59;5021756;28;45245;-63
2021/11/14 07:07:30;;;;;;;;;5.50;5.50;;;;;12.47;76.37;101594.06;5026582;28;45432;-63
2021/11/14 07:09:56;;;;;;;;;10.50;5.50;;;;;12.50;76.19;101602.69;5041678;28;45623;-63
2021/11/14 07:12:23;;;;;;;;;10.25;8.75;;;;;12.51;76.19;101601.75;5041476;28;45237;-63
2021/11/14 07:14:50;;;;;;;;;8.25;8.00;;;;;12.52;76.27;101600.81;5041900;28;45243;-63
2021/11/14 07:17:16;;;;;;;;;9.00;7.50;;;;;12.53;76.12;101606.94;5041226;28;45348;-63
2021/11/14 07:19:42;;;;;;;;;8.25;8.25;;;;;12.54;76.10;101614.78;5033404;28;45450;-63
2021/11/14 07:22:08;;;;;;;;;6.50;6.50;;;;;12.56;76.08;101614.75;5021107;28;45328;-63
2021/11/14 07:24:33;;;;;;;;;10.75;8.00;;;;;12.59;76.24;101614.56;5021415;28;45391;-63
2021/11/14 07:26:59;;;;;;;;;10.00;9.00;;;;;12.61;75.93;101619.75;5021339;28;45296;-63
2021/11/14 07:29:24;;;;;;;;;9.50;6.75;;;;;12.62;76.12;101627.59;5021301;28;46137;-63
2021/11/14 07:31:50;;;;;;;;;8.00;5.50;;;;;12.63;76.10;101624.03;5020984;28;45322;-63
2021/11/14 07:34:16;;;;;;;;;8.50;6.75;;;;;12.64;75.88;101631.03;5021252;28;45230;-63
2021/11/14 07:36:42;;;;;;;;;10.00;7.75;;;;;12.64;75.91;101633.69;5020896;28;45592;-63
2021/11/14 07:39:07;;;;;;;;;9.00;9.00;;;;;12.64;75.91;101633.69;5021148;28;45888;-63
2021/11/14 07:41:33;;;;;;;;;8.25;8.25;;;;;12.65;75.92;101632.75;5020966;28;45230;-63
2021/11/14 07:43:59;;;;;;;;;9.25;8.00;;;;;12.67;75.95;101637.94;5021319;28;45254;-64
2021/11/14 07:46:26;;;;;;;;;9.25;8.75;;;;;12.67;76.02;101637.94;5020921;28;45432;-63
2021/11/14 07:48:52;;;;;;;;;6.75;6.50;;;;;12.67;75.76;101645.88;5020628;28;45412;-63
2021/11/14 07:51:18;;;;;;;;;9.00;9.00;;;;;12.66;75.86;101647.66;5002858;28;45340;-63
2021/11/14 07:53:43;;;;;;;;;9.50;8.50;;;;;12.69;76.05;101647.50;5019377;28;45437;-63
2021/11/14 07:56:09;;;;;;;;;7.00;7.00;;;;;12.70;75.82;101650.97;5021190;28;45318;-63
2021/11/14 07:58:34;;;;;;;;;7.75;7.50;;;;;12.72;75.90;101652.63;5018874;28;45314;-63
2021/11/14 08:01:00;;;;;;;;;5.00;5.00;;;;;12.75;75.87;101660.38;5020807;28;45322;-63
2021/11/14 08:03:31;;;;;;;;;11.50;7.00;;;;;12.77;75.61;101665.59;5020743;28;45297;-63
2021/11/14 08:05:57;;;;;;;;;8.00;8.00;;;;;12.81;75.83;101661.84;5020800;28;45283;-63
2021/11/14 08:08:22;;;;;;;;;4.50;4.50;;;;;12.82;75.42;101663.56;5020545;28;45985;-63
2021/11/14 08:10:48;;;;;;;;;8.00;6.25;;;;;12.82;75.44;101667.06;5021878;28;45412;-63
2021/11/14 08:13:14;;;;;;;;;8.00;6.00;;;;;12.83;75.58;101671.41;5024558;28;45476;-63
2021/11/14 08:15:39;;;;;;;;;4.50;4.00;;;;;12.83;75.15;101671.41;5024486;28;45275;-63
2021/11/14 08:18:06;;;;;;;;;9.25;5.25;;;;;12.78;75.27;101669.94;5023957;28;45851;-63
2021/11/14 08:20:35;;;;;;;;;10.00;9.50;;;;;12.78;74.82;101668.13;5009902;28;45245;-63
2021/11/14 08:23:05;;;;;;;;;10.50;8.25;;;;;12.79;75.07;101664.56;5021379;28;45350;-63
2021/11/14 08:25:33;;;;;;;;;9.25;6.00;;;;;12.79;75.34;101669.84;5024146;28;45338;-63
2021/11/14 08:27:58;;;;;;;;;10.50;7.75;;;;;12.80;75.16;101668.94;5024246;28;45268;-63
2021/11/14 08:30:25;;;;;;;;;8.25;6.75;;;;;12.82;75.09;101669.69;5023874;28;45207;-64
2021/11/14 08:32:51;;;;;;;;;8.00;6.25;;;;;12.82;74.98;101667.06;5024060;28;45368;-63
2021/11/14 08:35:19;;;;;;;;;7.25;5.50;;;;;12.86;74.91;101665.09;5023949;28;45266;-64
2021/11/14 08:37:46;;;;;;;;;5.25;4.00;;;;;12.92;75.15;101669.19;5023996;28;45327;-64
2021/11/14 08:40:12;;;;;;;;;6.50;5.75;;;;;12.95;74.81;101671.66;5024483;28;45279;-64
2021/11/14 08:42:39;;;;;;;;;3.75;3.75;;;;;12.96;74.81;101668.09;5025232;28;45274;-63
2021/11/14 08:45:07;;;;;;;;;6.00;4.25;;;;;12.96;74.78;101665.47;5024045;28;45356;-68
2021/11/14 08:47:33;;;;;;;;;4.75;3.75;;;;;12.97;74.81;101667.16;5023518;28;45344;-63
2021/11/14 08:49:59;;;;;;;;;8.75;7.75;;;;;12.99;74.75;101671.44;5023487;28;45469;-63
2021/11/14 08:52:26;;;;;;;;;4.75;4.50;;;;;13.00;74.52;101674.94;5029775;28;45269;-63
2021/11/14 08:54:52;;;;;;;;;8.25;4.50;;;;;13.03;74.60;101680.03;5031106;28;45309;-63
2021/11/14 08:57:18;;;;;;;;;7.50;7.50;;;;;13.04;74.14;101673.84;5033667;28;45238;-63
2021/11/14 08:59:48;;;;;;;;;10.00;8.50;;;;;13.09;74.29;101671.78;5023500;28;45390;-63
2021/11/14 09:02:14;;;;;;;;;7.50;5.75;;;;;13.20;74.17;101673.88;5023284;28;45285;-63
2021/11/14 09:04:40;;;;;;;;;6.50;5.00;;;;;13.22;74.45;101672.00;5023388;28;45305;-63
2021/11/14 09:07:06;;;;;;;;;6.00;6.00;;;;;13.28;74.26;101675.16;5024927;28;46447;-63
2021/11/14 09:09:33;;;;;;;;;8.50;4.00;;;;;13.34;73.70;101679.22;5043254;28;45182;-63
2021/11/14 09:11:58;;;;;;;;;10.50;9.00;;;;;13.36;73.96;101680.88;5043358;28;45290;-63
2021/11/14 09:14:24;;;;;;;;;7.00;5.50;;;;;13.35;73.46;101675.66;5043235;28;45241;-65
2021/11/14 09:16:51;;;;;;;;;10.00;7.25;;;;;13.29;73.46;101676.84;5042827;28;45348;-63
2021/11/14 09:19:18;;;;;;;;;8.25;4.50;;;;;13.26;73.25;101678.81;5045919;28;45402;-63
2021/11/14 09:21:44;;;;;;;;;9.00;6.50;;;;;13.29;73.39;101678.66;5033637;28;45451;-63
2021/11/14 09:24:10;;;;;;;;;6.75;5.00;;;;;13.31;73.13;101684.72;5025176;28;45323;-63
2021/11/14 09:26:37;;;;;;;;;5.50;5.50;;;;;13.31;73.29;101684.72;5023018;28;45322;-63
2021/11/14 09:29:03;;;;;;;;;5.00;4.00;;;;;13.35;73.25;101678.28;5022852;28;45423;-62
2021/11/14 09:31:29;;;;;;;;;4.25;3.00;;;;;13.40;72.97;101681.53;5022950;28;45214;-62
2021/11/14 09:33:57;;;;;;;;;3.25;2.00;;;;;13.46;72.92;101683.00;5022942;28;45225;-62
2021/11/14 09:36:23;;;;;;;;;4.00;4.00;;;;;13.53;72.88;101687.00;5022581;28;46396;-64
2021/11/14 09:38:48;;;;;;;;;4.00;4.00;;;;;13.57;72.45;101680.59;5022676;28;45441;-62
2021/11/14 09:41:15;;;;;;;;;6.25;5.50;;;;;13.57;72.44;101680.59;5023030;28;45317;-62
2021/11/14 09:43:40;;;;;;;;;5.00;3.75;;;;;13.57;72.67;101684.09;5027774;28;45193;-62
2021/11/14 09:46:06;;;;;;;;;11.50;9.75;;;;;13.61;72.72;101690.09;5031033;28;46563;-62
2021/11/14 09:48:32;;;;;;;;;4.50;4.00;;;;;13.62;72.48;101687.34;5022386;28;45225;-63
2021/11/14 09:51:00;;;;;;;;;6.00;5.00;;;;;13.56;72.78;101685.03;5022868;28;45467;-63
2021/11/14 09:53:28;;;;;;;;;7.75;6.00;;;;;13.57;72.79;101693.81;5036783;28;45386;-63
2021/11/14 09:55:55;;;;;;;;;9.25;9.00;;;;;13.54;72.30;101692.22;5042402;28;45416;-63
2021/11/14 09:58:21;;;;;;;;;8.25;5.25;;;;;13.48;72.77;101689.91;5042325;28;45252;-63
2021/11/14 10:00:47;;;;;;;;;8.25;5.00;;;;;13.45;73.06;101691.88;5042269;28;45288;-63
2021/11/14 10:03:13;;;;;;;;;7.75;6.00;;;;;13.47;73.12;101695.28;5042301;28;45268;-63
2021/11/14 10:05:39;;;;;;;;;7.25;6.25;;;;;13.48;73.00;101695.19;5042220;28;46122;-63
2021/11/14 10:08:09;;;;;;;;;6.75;6.75;;;;;13.48;72.98;101705.78;5042089;28;45463;-63
2021/11/14 10:10:49;;;;;;;;;12.25;7.00;;;;;13.45;72.81;101700.69;5042381;28;45316;-63
2021/11/14 10:13:19;;;;;;;;;6.00;6.00;;;;;13.40;73.03;101700.91;5042383;28;45650;-63
2021/11/14 10:15:49;;;;;;;;;7.25;7.25;;;;;13.39;73.21;101698.38;5042008;28;45341;-63
2021/11/14 10:18:19;;;;;;;;;10.50;5.75;;;;;13.38;73.67;101699.31;5041773;28;45266;-63
2021/11/14 10:20:45;;;;;;;;;9.75;8.75;;;;;13.38;73.22;101696.66;5042238;28;45312;-64
2021/11/14 10:23:15;;;;;;;;;9.75;7.25;;;;;13.34;73.41;101697.75;5042176;28;45182;-63
2021/11/14 10:25:42;;;;;;;;;12.00;9.00;;;;;13.38;73.74;101699.31;5042040;28;46380;-64
2021/11/14 10:28:08;;;;;;;;;13.25;10.00;;;;;13.44;73.30;101698.13;5042054;28;45346;-63
2021/11/14 10:30:38;;;;;;;;;19.75;16.00;;;;;13.47;73.42;101690.84;5041837;28;45298;-63
2021/11/14 10:33:08;;;;;;;;;11.75;9.00;;;;;13.50;72.87;101692.47;5041500;28;45277;-63
2021/11/14 10:35:36;;;;;;;;;12.00;10.75;;;;;13.49;72.95;101696.91;5041622;28;45333;-64
2021/11/14 10:38:05;;;;;;;;;15.00;12.00;;;;;13.49;73.20;101696.06;5041852;28;45254;-63
2021/11/14 10:40:36;;;;;;;;;10.50;9.75;;;;;13.53;72.91;101697.59;5041642;28;45503;-63
2021/11/14 10:43:02;;;;;;;;;42.00;34.00;;;;;13.55;72.83;101696.56;5041843;28;45177;-63
2021/11/14 10:45:29;;;;;;;;;15.00;13.50;;;;;13.54;72.80;101694.00;5041648;28;45315;-63
2021/11/14 10:48:04;;;;;;;;;12.50;11.50;;;;;13.49;72.74;101688.97;5041530;28;45415;-64
2021/11/14 10:50:35;;;;;;;;;12.50;10.75;;;;;13.46;72.75;101693.59;5023765;28;45198;-63
2021/11/14 10:53:13;;;;;;;;;13.00;10.00;;;;;13.47;72.87;101697.94;5023487;28;45441;-63
2021/11/14 10:55:39;;;;;;;;;19.00;16.75;;;;;13.43;73.00;101691.97;5041362;28;45366;-64
2021/11/14 10:58:05;;;;;;;;;11.75;10.00;;;;;13.46;73.06;101696.22;5041505;28;45244;-63
2021/11/14 11:00:31;;;;;;;;;11.00;11.00;;;;;13.52;73.15;101701.19;5041691;28;45396;-63
2021/11/14 11:03:01;;;;;;;;;14.00;12.50;;;;;13.54;73.10;101702.81;5041445;28;45401;-63
2021/11/14 11:05:28;;;;;;;;;13.75;13.00;;;;;13.56;72.59;101702.72;5041222;28;46224;-63
2021/11/14 11:08:08;;;;;;;;;12.00;12.00;;;;;13.55;72.46;101703.66;5041072;28;45319;-63
2021/11/14 11:10:40;;;;;;;;;12.00;11.25;;;;;13.57;72.74;101701.75;5041305;28;45320;-63
2021/11/14 11:13:09;;;;;;;;;13.50;13.50;;;;;13.64;72.50;101696.03;5041288;28;45454;-63
2021/11/14 11:15:49;;;;;;;;;17.25;13.75;;;;;13.72;72.51;101702.69;5041265;28;46406;-63
2021/11/14 11:18:20;;;;;;;;;17.50;12.00;;;;;13.79;72.19;101704.06;5041174;28;45171;-63
2021/11/14 11:20:52;;;;;;;;;19.00;18.50;;;;;13.84;72.02;101708.16;5041234;28;45217;-63